createdAt,value
2017-09-22T00:02:15.376Z,18.37
2017-09-22T00:04:42.883Z,17.15
2017-09-22T00:07:10.403Z,18.73
2017-09-22T00:09:37.898Z,13.73
2017-09-22T00:12:05.420Z,12.55
2017-09-22T00:14:32.927Z,14.10
2017-09-22T00:17:00.434Z,15.00
2017-09-22T00:19:27.955Z,11.73
2017-09-22T00:21:55.458Z,11.90
2017-09-22T00:24:22.979Z,14.75
2017-09-22T00:26:51.258Z,18.50
2017-09-22T00:29:19.545Z,11.82
2017-09-22T00:31:47.047Z,14.45
2017-09-22T00:34:14.602Z,10.52
2017-09-22T00:36:42.106Z,13.90
2017-09-22T00:39:09.622Z,11.30
2017-09-22T00:41:37.135Z,12.30
2017-09-22T00:44:05.427Z,12.60
2017-09-22T00:46:32.930Z,12.85
2017-09-22T00:49:00.454Z,13.77
2017-09-22T00:51:27.954Z,12.68
2017-09-22T00:53:55.475Z,11.68
2017-09-22T00:56:22.983Z,11.27
2017-09-22T00:58:50.506Z,12.05
2017-09-22T01:01:18.018Z,18.02
2017-09-22T01:03:46.333Z,13.88
2017-09-22T01:06:13.840Z,10.98
2017-09-22T01:08:41.362Z,14.80
2017-09-22T01:11:08.871Z,13.05
2017-09-22T01:13:37.161Z,14.27
2017-09-22T01:16:05.461Z,11.65
2017-09-22T01:18:32.960Z,12.35
2017-09-22T01:21:00.504Z,13.60
2017-09-22T01:23:28.010Z,11.40
2017-09-22T01:25:56.311Z,9.57
2017-09-22T01:28:23.814Z,13.90
2017-09-22T01:30:51.331Z,11.00
2017-09-22T01:33:18.844Z,10.80
2017-09-22T01:35:46.371Z,14.10
2017-09-22T01:38:13.870Z,9.93
2017-09-22T01:40:41.386Z,9.80
2017-09-22T01:43:08.890Z,11.70
2017-09-22T01:45:36.402Z,15.52
2017-09-22T01:48:03.906Z,8.63
2017-09-22T01:50:31.425Z,9.23
2017-09-22T01:52:58.927Z,12.85
2017-09-22T01:55:26.442Z,11.32
2017-09-22T01:57:53.946Z,10.98
2017-09-22T02:00:22.239Z,8.93
2017-09-22T02:02:49.738Z,9.95
2017-09-22T02:05:17.265Z,10.70
2017-09-22T02:07:44.781Z,11.73
2017-09-22T02:10:12.310Z,15.15
2017-09-22T02:12:39.833Z,10.40
2017-09-22T02:15:08.114Z,14.10
2017-09-22T02:17:36.402Z,12.23
2017-09-22T02:20:03.912Z,10.07
2017-09-22T02:22:33.434Z,10.48
2017-09-22T02:25:00.933Z,11.63
2017-09-22T02:27:28.440Z,13.55
2017-09-22T02:29:55.974Z,10.98
2017-09-22T02:32:23.466Z,11.02
2017-09-22T02:34:50.982Z,10.50
2017-09-22T02:37:18.487Z,10.73
2017-09-22T02:39:46.782Z,12.37
2017-09-22T02:42:15.043Z,9.50
2017-09-22T02:44:43.353Z,11.73
2017-09-22T02:47:10.860Z,10.20
2017-09-22T02:49:38.375Z,9.35
2017-09-22T02:52:05.879Z,11.23
2017-09-22T02:54:33.391Z,13.65
2017-09-22T02:57:00.886Z,12.80
2017-09-22T02:59:28.407Z,8.90
2017-09-22T03:01:55.917Z,10.02
2017-09-22T03:04:23.446Z,11.77
2017-09-22T03:06:51.719Z,10.32
2017-09-22T03:09:19.223Z,12.15
2017-09-22T03:11:47.522Z,11.57
2017-09-22T03:14:15.782Z,13.32
2017-09-22T03:16:43.294Z,10.45
2017-09-22T03:19:10.789Z,11.88
2017-09-22T03:21:38.306Z,11.23
2017-09-22T03:24:05.814Z,17.48
2017-09-22T03:26:34.097Z,12.37
2017-09-22T03:29:02.364Z,10.80
2017-09-22T03:31:29.879Z,11.05
2017-09-22T03:33:57.373Z,14.65
2017-09-22T03:36:24.898Z,11.63
2017-09-22T03:38:52.398Z,10.27
2017-09-22T03:41:19.919Z,12.18
2017-09-22T03:43:47.455Z,13.25
2017-09-22T03:46:14.979Z,10.90
2017-09-22T03:48:42.495Z,11.05
2017-09-22T03:51:10.026Z,12.15
2017-09-22T03:53:37.542Z,12.65
2017-09-22T03:56:05.118Z,13.23
2017-09-22T03:58:32.611Z,10.30
2017-09-22T04:01:00.134Z,13.85
2017-09-22T04:03:27.646Z,10.85
2017-09-22T04:05:55.184Z,12.00
2017-09-22T04:08:22.699Z,14.45
2017-09-22T04:10:50.228Z,12.57
2017-09-22T04:13:17.733Z,15.20
2017-09-22T04:15:45.248Z,15.95
2017-09-22T04:18:12.748Z,13.60
2017-09-22T04:20:40.270Z,15.48
2017-09-22T04:23:07.782Z,19.75
2017-09-22T04:25:36.073Z,14.40
2017-09-22T04:28:03.589Z,14.13
2017-09-22T04:30:31.113Z,22.45
2017-09-22T04:32:58.617Z,18.73
2017-09-22T04:35:26.135Z,13.77
2017-09-22T04:37:53.623Z,13.93
2017-09-22T04:40:21.145Z,17.05
2017-09-22T04:42:48.642Z,16.98
2017-09-22T04:45:16.162Z,19.08
2017-09-22T04:47:43.670Z,13.70
2017-09-22T04:50:11.196Z,13.18
2017-09-22T04:52:38.690Z,15.75
2017-09-22T04:55:06.214Z,11.93
2017-09-22T04:57:33.719Z,12.18
2017-09-22T05:00:01.984Z,12.63
2017-09-22T05:02:29.499Z,18.50
2017-09-22T05:04:56.998Z,12.23
2017-09-22T05:07:24.521Z,14.77
2017-09-22T05:09:52.021Z,13.48
2017-09-22T05:12:19.539Z,13.30
2017-09-22T05:14:47.038Z,18.67
2017-09-22T05:17:14.562Z,22.62
2017-09-22T05:19:42.086Z,21.02
2017-09-22T05:22:10.379Z,24.45
2017-09-22T05:24:37.890Z,18.33
2017-09-22T05:27:06.178Z,18.17
2017-09-22T05:29:34.446Z,19.00
2017-09-22T05:32:01.973Z,21.65
2017-09-22T05:34:29.482Z,20.23
2017-09-22T05:36:57.772Z,16.92
2017-09-22T05:39:25.270Z,20.75
2017-09-22T05:41:52.787Z,16.58
2017-09-22T05:44:20.290Z,17.20
2017-09-22T05:46:47.826Z,16.40
2017-09-22T05:49:15.331Z,14.63
2017-09-22T05:51:42.851Z,11.63
2017-09-22T05:54:10.352Z,15.88
2017-09-22T05:56:38.650Z,16.40
2017-09-22T05:59:06.169Z,18.42
2017-09-22T06:01:33.698Z,10.73
2017-09-22T06:04:01.202Z,24.42
2017-09-22T06:06:28.727Z,12.50
2017-09-22T06:08:56.254Z,14.93
2017-09-22T06:11:23.779Z,13.15
2017-09-22T06:13:51.278Z,12.70
2017-09-22T06:16:18.794Z,11.93
2017-09-22T06:18:46.286Z,12.90
2017-09-22T06:21:14.258Z,15.93
2017-09-22T06:23:41.758Z,11.52
2017-09-22T06:26:09.275Z,15.57
2017-09-22T06:28:36.778Z,15.32
2017-09-22T06:31:04.303Z,20.73
2017-09-22T06:33:31.809Z,13.23
2017-09-22T06:35:59.335Z,12.68
2017-09-22T06:38:26.837Z,16.17
2017-09-22T06:40:54.364Z,10.90
2017-09-22T06:43:21.862Z,13.13
2017-09-22T06:45:49.374Z,9.40
2017-09-22T06:48:16.873Z,12.93
2017-09-22T06:50:44.397Z,13.00
2017-09-22T06:53:12.677Z,11.38
2017-09-22T06:55:40.203Z,14.18
2017-09-22T06:58:07.703Z,12.25
2017-09-22T07:00:35.217Z,8.25
2017-09-22T07:03:02.747Z,13.65
2017-09-22T07:05:30.259Z,11.00
2017-09-22T07:07:57.794Z,12.82
2017-09-22T07:10:25.298Z,12.37
2017-09-22T07:12:52.818Z,11.80
2017-09-22T07:15:20.341Z,10.68
2017-09-22T07:17:47.855Z,10.90
2017-09-22T07:20:15.353Z,9.52
2017-09-22T07:22:43.350Z,15.80
2017-09-22T07:25:11.627Z,11.85
2017-09-22T07:27:39.914Z,10.27
2017-09-22T07:30:07.425Z,10.35
2017-09-22T07:32:34.954Z,9.90
2017-09-22T07:35:02.458Z,8.55
2017-09-22T07:37:29.970Z,9.13
2017-09-22T07:39:57.498Z,11.40
2017-09-22T07:42:25.793Z,10.10
2017-09-22T07:44:53.315Z,10.75
2017-09-22T07:47:20.842Z,7.47
2017-09-22T07:49:48.365Z,9.75
2017-09-22T07:52:15.923Z,16.80
2017-09-22T07:54:43.439Z,11.80
2017-09-22T07:57:10.967Z,10.70
2017-09-22T07:59:38.471Z,9.75
2017-09-22T08:02:05.989Z,12.75
2017-09-22T08:04:33.506Z,11.57
2017-09-22T08:07:01.035Z,13.10
2017-09-22T08:09:28.574Z,33.38
2017-09-22T08:11:56.094Z,13.32
2017-09-22T08:14:23.634Z,10.25
2017-09-22T08:16:51.158Z,10.25
2017-09-22T08:19:18.676Z,16.98
2017-09-22T08:21:46.190Z,10.13
2017-09-22T08:24:13.718Z,7.35
2017-09-22T08:26:41.214Z,6.28
2017-09-22T08:29:08.731Z,5.55
2017-09-22T08:31:37.154Z,5.55
2017-09-22T08:34:04.704Z,9.35
2017-09-22T08:36:32.222Z,6.40
2017-09-22T08:39:00.661Z,6.80
2017-09-22T08:41:28.166Z,6.55
2017-09-22T08:43:55.732Z,5.40
2017-09-22T08:46:23.231Z,5.28
2017-09-22T08:48:50.746Z,7.37
2017-09-22T08:51:18.249Z,6.07
2017-09-22T08:53:45.777Z,6.35
2017-09-22T08:56:13.274Z,6.57
2017-09-22T08:58:40.787Z,7.35
2017-09-22T09:01:08.311Z,7.95
2017-09-22T09:03:36.586Z,5.32
2017-09-22T09:06:04.879Z,5.60
2017-09-22T09:08:32.374Z,7.03
2017-09-22T09:10:59.922Z,5.00
2017-09-22T09:13:27.413Z,4.70
2017-09-22T09:15:54.950Z,5.30
2017-09-22T09:18:22.463Z,5.07
2017-09-22T09:20:50.750Z,11.05
2017-09-22T09:23:18.255Z,6.80
2017-09-22T09:25:45.783Z,6.93
2017-09-22T09:28:13.288Z,5.68
2017-09-22T09:30:40.806Z,6.12
2017-09-22T09:33:08.314Z,6.28
2017-09-22T09:35:35.858Z,6.55
2017-09-22T09:38:03.379Z,7.47
2017-09-22T09:40:30.918Z,8.00
2017-09-22T09:42:59.193Z,5.62
2017-09-22T09:45:27.474Z,5.78
2017-09-22T09:47:54.969Z,6.15
2017-09-22T09:50:22.486Z,6.47
2017-09-22T09:52:50.749Z,9.50
2017-09-22T09:55:19.065Z,6.32
2017-09-22T09:57:46.578Z,7.50
2017-09-22T10:00:14.083Z,7.75
2017-09-22T10:02:41.636Z,6.07
2017-09-22T10:05:10.070Z,7.85
2017-09-22T10:07:37.590Z,8.02
2017-09-22T10:10:05.091Z,8.05
2017-09-22T10:12:32.606Z,8.73
2017-09-22T10:15:00.106Z,9.10
2017-09-22T10:17:27.629Z,8.40
2017-09-22T10:19:55.123Z,7.87
2017-09-22T10:22:22.649Z,10.93
2017-09-22T10:24:50.151Z,8.00
2017-09-22T10:27:17.670Z,7.75
2017-09-22T10:29:45.170Z,7.60
2017-09-22T10:32:12.699Z,8.02
2017-09-22T10:34:40.202Z,7.37
2017-09-22T10:37:08.488Z,7.75
2017-09-22T10:39:35.998Z,7.45
2017-09-22T10:42:03.526Z,10.80
2017-09-22T10:44:31.801Z,8.63
2017-09-22T10:46:59.334Z,14.25
2017-09-22T10:49:27.603Z,9.27
2017-09-22T10:51:55.139Z,10.98
2017-09-22T10:54:22.637Z,15.18
2017-09-22T10:56:50.906Z,10.25
2017-09-22T10:59:19.186Z,11.00
2017-09-22T11:01:47.450Z,11.52
2017-09-22T11:04:15.739Z,10.20
2017-09-22T11:06:44.015Z,11.90
2017-09-22T11:09:11.530Z,11.48
2017-09-22T11:11:39.031Z,14.57
2017-09-22T11:14:06.548Z,12.13
2017-09-22T11:16:34.820Z,11.75
2017-09-22T11:19:02.344Z,11.98
2017-09-22T11:21:29.850Z,13.52
2017-09-22T11:23:57.392Z,11.82
2017-09-22T11:26:25.666Z,12.68
2017-09-22T11:28:53.966Z,14.30
2017-09-22T11:31:20.973Z,16.52
2017-09-22T11:33:47.995Z,17.37
2017-09-22T11:36:15.499Z,18.12
2017-09-22T11:38:43.785Z,15.10
2017-09-22T11:41:12.062Z,13.82
2017-09-22T11:43:39.598Z,13.68
2017-09-22T11:46:07.119Z,14.57
2017-09-22T11:48:34.645Z,15.70
2017-09-22T11:51:02.163Z,10.90
2017-09-22T11:53:30.766Z,12.70
2017-09-22T11:55:58.309Z,14.15
2017-09-22T11:58:25.814Z,13.07
2017-09-22T12:00:53.335Z,13.85
2017-09-22T12:03:20.843Z,10.20
2017-09-22T12:05:48.362Z,12.02
2017-09-22T12:08:15.877Z,11.45
2017-09-22T12:10:44.174Z,13.65
2017-09-22T12:13:11.689Z,10.70
2017-09-22T12:15:39.216Z,10.95
2017-09-22T12:18:06.717Z,13.32
2017-09-22T12:20:34.238Z,12.27
2017-09-22T12:23:01.743Z,12.73
2017-09-22T12:25:29.264Z,13.38
2017-09-22T12:27:56.769Z,13.32
2017-09-22T12:30:25.064Z,12.52
2017-09-22T12:32:52.574Z,12.18
2017-09-22T12:35:20.086Z,12.88
2017-09-22T12:37:47.594Z,13.40
2017-09-22T12:40:15.122Z,13.75
2017-09-22T12:42:42.626Z,14.90
2017-09-22T12:45:10.155Z,14.35
2017-09-22T12:47:37.662Z,15.77
2017-09-22T12:50:05.186Z,17.42
2017-09-22T12:52:32.703Z,15.23
2017-09-22T12:55:00.227Z,15.85
2017-09-22T12:57:27.754Z,15.00
2017-09-22T12:59:55.331Z,13.18
2017-09-22T13:02:22.862Z,11.55
2017-09-22T13:04:50.382Z,16.52
2017-09-22T13:07:17.923Z,12.98
2017-09-22T13:09:45.433Z,12.18
2017-09-22T13:12:12.957Z,15.32
2017-09-22T13:14:41.326Z,13.98
2017-09-22T13:17:08.849Z,14.73
2017-09-22T13:19:36.366Z,14.35
2017-09-22T13:22:03.902Z,13.55
2017-09-22T13:24:32.191Z,14.48
2017-09-22T13:27:00.477Z,15.30
2017-09-22T13:29:27.990Z,15.20
2017-09-22T13:31:55.512Z,15.20
2017-09-22T13:34:23.039Z,14.05
2017-09-22T13:36:51.341Z,15.10
2017-09-22T13:39:19.754Z,14.70
2017-09-22T13:41:47.280Z,13.90
2017-09-22T13:44:14.788Z,15.40
2017-09-22T13:46:42.317Z,14.87
2017-09-22T13:49:09.827Z,14.40
2017-09-22T13:51:37.362Z,16.17
2017-09-22T13:54:04.881Z,12.95
2017-09-22T13:56:32.410Z,16.17
2017-09-22T13:58:59.939Z,17.30
2017-09-22T14:01:27.454Z,17.08
2017-09-22T14:03:54.977Z,17.95
2017-09-22T14:06:22.499Z,13.00
2017-09-22T14:08:50.042Z,16.05
2017-09-22T14:11:17.568Z,14.85
2017-09-22T14:13:45.094Z,14.00
2017-09-22T14:16:12.616Z,16.00
2017-09-22T14:18:40.145Z,12.95
2017-09-22T14:21:08.422Z,15.35
2017-09-22T14:23:36.722Z,17.80
2017-09-22T14:26:04.223Z,13.38
2017-09-22T14:28:31.734Z,18.48
2017-09-22T14:31:00.014Z,13.60
2017-09-22T14:33:27.545Z,14.55
2017-09-22T14:35:55.069Z,13.68
2017-09-22T14:38:22.590Z,11.23
2017-09-22T14:40:50.094Z,13.02
2017-09-22T14:43:17.618Z,13.32
2017-09-22T14:45:45.138Z,13.38
2017-09-22T14:48:12.698Z,12.63
2017-09-22T14:50:40.237Z,14.95
2017-09-22T14:53:07.740Z,15.32
2017-09-22T14:55:36.613Z,19.75
2017-09-22T14:58:04.162Z,12.40
2017-09-22T15:00:31.691Z,16.92
2017-09-22T15:02:59.214Z,16.40
2017-09-22T15:05:26.752Z,16.05
2017-09-22T15:07:54.254Z,12.05
2017-09-22T15:10:21.790Z,15.82
2017-09-22T15:12:50.070Z,15.05
2017-09-22T15:15:18.359Z,14.90
2017-09-22T15:17:45.879Z,30.83
2017-09-22T15:20:13.418Z,14.45
2017-09-22T15:22:40.926Z,14.27
2017-09-22T15:25:09.483Z,15.43
2017-09-22T15:27:37.279Z,15.05
2017-09-22T15:30:05.606Z,14.98
2017-09-22T15:32:33.111Z,16.77
2017-09-22T15:35:01.394Z,15.88
2017-09-22T15:37:28.914Z,16.33
2017-09-22T15:39:56.450Z,16.42
2017-09-22T15:42:23.963Z,16.02
2017-09-22T15:44:51.522Z,14.27
2017-09-22T15:47:19.035Z,13.13
2017-09-22T15:49:46.572Z,12.52
2017-09-22T15:52:14.078Z,14.50
2017-09-22T15:54:41.613Z,15.68
2017-09-22T15:57:09.139Z,10.68
2017-09-22T15:59:36.662Z,13.62
2017-09-22T16:02:04.181Z,13.57
2017-09-22T16:04:31.695Z,10.95
2017-09-22T16:06:59.982Z,13.05
2017-09-22T16:09:28.252Z,11.63
2017-09-22T16:11:56.562Z,14.73
2017-09-22T16:14:24.066Z,19.90
2017-09-22T16:16:51.598Z,12.57
2017-09-22T16:19:19.108Z,12.10
2017-09-22T16:21:46.676Z,12.50
2017-09-22T16:24:14.962Z,10.65
2017-09-22T16:26:42.535Z,10.75
2017-09-22T16:29:10.042Z,11.35
2017-09-22T16:31:38.372Z,10.25
2017-09-22T16:34:05.879Z,15.02
2017-09-22T16:36:33.439Z,14.77
2017-09-22T16:39:01.740Z,18.83
2017-09-22T16:41:30.041Z,12.00
2017-09-22T16:43:57.554Z,27.77
2017-09-22T16:46:25.083Z,18.08
2017-09-22T16:48:52.634Z,11.25
2017-09-22T16:51:20.186Z,12.35
2017-09-22T16:53:47.726Z,11.70
2017-09-22T16:56:15.256Z,13.30
2017-09-22T16:58:42.783Z,13.27
2017-09-22T17:01:10.291Z,14.25
2017-09-22T17:03:38.602Z,14.43
2017-09-22T17:06:06.214Z,9.73
2017-09-22T17:08:33.754Z,13.55
2017-09-22T17:11:01.279Z,15.77
2017-09-22T17:13:28.802Z,13.25
2017-09-22T17:15:56.309Z,12.18
2017-09-22T17:18:23.834Z,14.27
2017-09-22T17:20:51.354Z,14.82
2017-09-22T17:23:18.891Z,16.85
2017-09-22T17:25:46.410Z,15.68
2017-09-22T17:28:13.941Z,15.93
2017-09-22T17:30:42.247Z,16.48
2017-09-22T17:33:10.550Z,20.88
2017-09-22T17:35:38.050Z,18.42
2017-09-22T17:38:05.612Z,18.25
2017-09-22T17:40:33.131Z,19.12
2017-09-22T17:43:00.663Z,20.52
2017-09-22T17:45:28.187Z,19.40
2017-09-22T17:47:55.735Z,20.02
2017-09-22T17:50:23.256Z,23.10
2017-09-22T17:52:50.763Z,19.42
2017-09-22T17:55:18.292Z,18.77
2017-09-22T17:57:45.802Z,16.73
2017-09-22T18:00:14.114Z,18.98
2017-09-22T18:02:41.624Z,29.70
2017-09-22T18:05:09.152Z,34.00
2017-09-22T18:07:36.658Z,27.95
2017-09-22T18:10:04.947Z,33.60
2017-09-22T18:12:33.268Z,25.42
2017-09-22T18:15:00.818Z,32.88
2017-09-22T18:17:28.338Z,25.02
2017-09-22T18:19:56.626Z,26.45
2017-09-22T18:22:24.147Z,30.48
2017-09-22T18:24:51.675Z,32.63
2017-09-22T18:27:19.190Z,30.05
2017-09-22T18:29:47.479Z,32.65
2017-09-22T18:32:15.750Z,29.55
2017-09-22T18:34:43.280Z,31.02
2017-09-22T18:37:10.786Z,39.28
2017-09-22T18:39:38.314Z,37.95
2017-09-22T18:42:06.600Z,46.78
2017-09-22T18:44:34.889Z,42.85
2017-09-22T18:47:02.412Z,40.25
2017-09-22T18:49:29.986Z,46.60
2017-09-22T18:51:58.266Z,44.05
2017-09-22T18:54:26.541Z,54.00
2017-09-22T18:56:54.123Z,39.55
2017-09-22T18:59:21.640Z,43.67
2017-09-22T19:01:49.173Z,44.78
2017-09-22T19:04:16.691Z,41.92
2017-09-22T19:06:44.993Z,44.08
2017-09-22T19:09:12.497Z,42.55
2017-09-22T19:11:40.057Z,44.67
2017-09-22T19:14:07.571Z,48.90
2017-09-22T19:16:35.110Z,59.40
2017-09-22T19:19:02.640Z,43.87
2017-09-22T19:21:30.174Z,55.40
2017-09-22T19:23:57.678Z,51.40
2017-09-22T19:26:25.967Z,53.53
2017-09-22T19:28:54.238Z,49.63
2017-09-22T19:31:22.532Z,47.38
2017-09-22T19:33:50.084Z,49.90
2017-09-22T19:36:17.626Z,42.80
2017-09-22T19:38:45.902Z,50.53
2017-09-22T19:41:13.469Z,38.17
2017-09-22T19:43:41.743Z,31.40
2017-09-22T19:46:10.047Z,23.15
2017-09-22T19:48:37.545Z,28.52
2017-09-22T19:51:05.095Z,31.77
2017-09-22T19:53:32.667Z,25.83
2017-09-22T19:56:00.186Z,30.45
2017-09-22T19:58:27.722Z,36.75
2017-09-22T20:00:56.036Z,40.10
2017-09-22T20:03:23.576Z,40.83
2017-09-22T20:05:51.111Z,43.38
2017-09-22T20:08:19.401Z,38.72
2017-09-22T20:10:47.670Z,38.80
2017-09-22T20:13:15.971Z,39.10
2017-09-22T20:15:43.519Z,45.00
2017-09-22T20:18:11.818Z,40.35
2017-09-22T20:20:39.325Z,40.97
2017-09-22T20:23:06.862Z,34.60
2017-09-22T20:25:34.489Z,35.67
2017-09-22T20:28:02.058Z,33.58
2017-09-22T20:30:29.575Z,31.12
2017-09-22T20:32:57.884Z,34.80
2017-09-22T20:35:25.386Z,29.87
2017-09-22T20:37:52.910Z,27.77
2017-09-22T20:40:21.220Z,27.45
2017-09-22T20:42:48.749Z,22.95
2017-09-22T20:45:16.272Z,24.75
2017-09-22T20:47:44.544Z,26.55
2017-09-22T20:50:14.164Z,24.27
2017-09-22T20:52:42.474Z,19.80
2017-09-22T20:55:10.015Z,23.10
2017-09-22T20:57:37.531Z,17.33
2017-09-22T21:00:05.063Z,22.20
2017-09-22T21:02:34.215Z,17.40
2017-09-22T21:05:01.970Z,18.77
2017-09-22T21:07:30.249Z,22.55
2017-09-22T21:09:58.549Z,21.52
2017-09-22T21:12:26.065Z,30.75
2017-09-22T21:14:53.595Z,23.58
2017-09-22T21:17:21.106Z,20.50
2017-09-22T21:19:49.395Z,21.87
2017-09-22T21:22:17.670Z,20.23
2017-09-22T21:24:46.013Z,18.60
2017-09-22T21:27:13.523Z,22.27
2017-09-22T21:29:41.049Z,18.35
2017-09-22T21:32:08.554Z,22.50
2017-09-22T21:34:36.864Z,18.12
2017-09-22T21:37:04.378Z,21.12
2017-09-22T21:39:31.903Z,23.27
2017-09-22T21:42:00.177Z,20.85
2017-09-22T21:44:27.718Z,20.25
2017-09-22T21:46:55.227Z,21.25
2017-09-22T21:49:22.754Z,21.95
2017-09-22T21:51:50.282Z,23.23
2017-09-22T21:54:17.778Z,21.10
2017-09-22T21:56:45.302Z,18.50
2017-09-22T21:59:12.820Z,20.10
2017-09-22T22:01:40.410Z,18.55
2017-09-22T22:04:25.621Z,21.15
2017-09-22T22:06:58.723Z,20.95
2017-09-22T22:09:26.998Z,19.08
2017-09-22T22:11:55.299Z,21.10
2017-09-22T22:14:22.806Z,20.10
2017-09-22T22:16:50.326Z,21.83
2017-09-22T22:19:17.846Z,17.17
2017-09-22T22:21:45.375Z,19.12
2017-09-22T22:24:12.883Z,19.55
2017-09-22T22:26:41.177Z,21.48
2017-09-22T22:29:08.679Z,15.90
2017-09-22T22:31:36.199Z,17.35
2017-09-22T22:34:03.710Z,18.75
2017-09-22T22:36:31.235Z,19.55
2017-09-22T22:38:58.734Z,18.10
2017-09-22T22:41:26.250Z,13.93
2017-09-22T22:43:53.745Z,16.42
2017-09-22T22:46:21.282Z,16.87
2017-09-22T22:48:48.790Z,20.48
2017-09-22T22:51:17.094Z,13.50
2017-09-22T22:53:44.589Z,14.55
2017-09-22T22:56:12.099Z,13.30
2017-09-22T22:58:39.625Z,16.12
2017-09-22T23:01:07.130Z,15.77
2017-09-22T23:03:34.650Z,17.73
2017-09-22T23:06:02.931Z,21.33
2017-09-22T23:08:31.214Z,17.92
2017-09-22T23:10:59.475Z,14.10
2017-09-22T23:13:27.003Z,14.95
2017-09-22T23:15:54.519Z,15.07
2017-09-22T23:18:22.064Z,15.43
2017-09-22T23:20:50.330Z,13.68
2017-09-22T23:23:17.861Z,12.63
2017-09-22T23:25:45.361Z,15.73
2017-09-22T23:28:13.638Z,15.77
2017-09-22T23:30:41.907Z,17.35
2017-09-22T23:33:10.210Z,12.75
2017-09-22T23:35:37.710Z,16.50
2017-09-22T23:38:06.288Z,17.62
2017-09-22T23:40:33.795Z,14.87
2017-09-22T23:43:02.089Z,16.55
2017-09-22T23:45:29.593Z,15.82
2017-09-22T23:47:57.120Z,13.18
2017-09-22T23:50:24.630Z,21.70
2017-09-22T23:52:52.157Z,15.45
2017-09-22T23:55:19.650Z,16.08
2017-09-22T23:57:47.158Z,12.45
